Time;durP1;ratioP1;P1;durP2;ratioP2;P2;SDS_P1;SDS_P2;PMS_P1;PMS_P2;Temp;Humidity;BMP_temperature;BMP_pressure;BME280_temperature;BME280_humidity;BME280_pressure;Samples;Min_cycle;Max_cycle;Signal;HPM_P1;HPM_P2
2021/11/28 05:02:22;;;;;;;8.97;7.63;;;3.20;99.90;;;;;;5086268;23;20985;-69
2021/11/28 05:04:49;;;;;;;8.43;7.50;;;3.10;99.90;;;;;;4977510;28;20455;-70
2021/11/28 05:07:16;;;;;;;8.43;7.60;;;3.20;99.90;;;;;;4977730;28;20878;-70
2021/11/28 05:09:42;;;;;;;9.50;8.50;;;3.20;99.90;;;;;;4977713;28;20506;-69
2021/11/28 05:12:09;;;;;;;9.17;8.20;;;3.20;99.90;;;;;;4977528;28;20479;-69
2021/11/28 05:14:36;;;;;;;11.83;10.70;;;3.20;99.90;;;;;;4977832;28;20489;-70
2021/11/28 05:17:04;;;;;;;8.87;8.10;;;3.20;99.90;;;;;;4977467;28;20456;-70
2021/11/28 05:19:32;;;;;;;9.30;8.37;;;3.10;99.90;;;;;;4977527;28;20455;-70
2021/11/28 05:22:00;;;;;;;9.20;8.40;;;3.10;99.90;;;;;;4977604;28;20483;-70
2021/11/28 05:24:26;;;;;;;10.73;8.50;;;3.10;99.90;;;;;;4977199;28;20939;-70
2021/11/28 05:26:53;;;;;;;11.60;9.77;;;3.10;99.90;;;;;;4977269;28;20455;-70
2021/11/28 05:29:20;;;;;;;12.43;8.90;;;3.00;99.90;;;;;;4977332;28;20458;-72
2021/11/28 05:31:47;;;;;;;9.47;8.63;;;3.00;99.90;;;;;;4976937;28;20511;-70
2021/11/28 05:34:13;;;;;;;10.70;8.60;;;3.00;99.90;;;;;;4976890;28;20525;-71
2021/11/28 05:36:41;;;;;;;9.40;8.40;;;3.00;99.90;;;;;;4976834;28;21009;-71
2021/11/28 05:39:08;;;;;;;9.40;7.97;;;3.00;99.90;;;;;;4976841;28;21009;-70
2021/11/28 05:41:35;;;;;;;10.87;8.87;;;3.10;99.90;;;;;;4977015;28;20476;-70
2021/11/28 05:44:02;;;;;;;8.87;7.97;;;3.10;99.90;;;;;;4976095;28;20462;-70
2021/11/28 05:46:28;;;;;;;7.80;7.20;;;3.10;99.90;;;;;;4976633;28;20455;-70
2021/11/28 05:48:55;;;;;;;8.73;7.87;;;3.10;99.90;;;;;;4977054;28;20856;-70
2021/11/28 05:51:22;;;;;;;11.53;7.37;;;3.20;99.90;;;;;;4976737;28;20510;-69
2021/11/28 05:53:50;;;;;;;8.37;7.43;;;3.20;99.90;;;;;;4976614;28;20471;-70
2021/11/28 05:56:17;;;;;;;8.20;7.50;;;3.20;99.90;;;;;;4976722;28;20505;-70
2021/11/28 05:58:44;;;;;;;9.90;7.93;;;3.30;99.90;;;;;;4977083;28;20487;-69
2021/11/28 06:01:11;;;;;;;7.97;7.17;;;3.30;99.90;;;;;;4977246;28;20913;-70
2021/11/28 06:03:37;;;;;;;8.50;7.60;;;3.30;99.90;;;;;;4977455;28;20455;-70
2021/11/28 06:06:04;;;;;;;8.40;7.63;;;3.20;99.90;;;;;;4976692;28;20510;-70
2021/11/28 06:08:31;;;;;;;8.13;7.43;;;3.30;99.90;;;;;;4976882;28;20455;-70
2021/11/28 06:10:59;;;;;;;7.60;7.00;;;3.30;99.90;;;;;;4976330;28;20475;-70
2021/11/28 06:13:25;;;;;;;8.10;7.30;;;3.30;99.90;;;;;;4976745;28;20511;-70
2021/11/28 06:15:52;;;;;;;9.77;8.87;;;3.20;99.90;;;;;;4976678;28;20543;-70
2021/11/28 06:18:19;;;;;;;9.00;8.10;;;3.20;99.90;;;;;;4976516;28;20947;-69
2021/11/28 06:20:47;;;;;;;9.00;8.10;;;3.30;99.90;;;;;;4976780;28;20482;-70
2021/11/28 06:23:14;;;;;;;9.33;8.43;;;3.30;99.90;;;;;;4976540;28;20513;-69
2021/11/28 06:25:41;;;;;;;10.03;8.07;;;3.30;99.90;;;;;;4976167;28;20454;-70
2021/11/28 06:28:09;;;;;;;8.87;7.97;;;3.30;99.90;;;;;;4976360;28;20469;-70
2021/11/28 06:30:36;;;;;;;8.50;7.70;;;3.30;99.90;;;;;;4976339;28;20562;-70
2021/11/28 06:33:04;;;;;;;11.93;9.03;;;3.30;99.90;;;;;;4982689;28;20439;-69
2021/11/28 06:35:30;;;;;;;10.30;9.20;;;3.30;99.90;;;;;;4992484;28;20487;-70
2021/11/28 06:37:57;;;;;;;10.90;8.90;;;3.20;99.90;;;;;;4978327;28;20451;-72
2021/11/28 06:40:24;;;;;;;10.87;9.67;;;3.20;99.90;;;;;;4976801;28;21006;-69
2021/11/28 06:42:51;;;;;;;12.00;9.77;;;3.20;99.90;;;;;;4976117;28;20510;-69
2021/11/28 06:45:19;;;;;;;11.50;9.33;;;3.10;99.90;;;;;;4975938;28;20454;-70
2021/11/28 06:47:46;;;;;;;10.93;9.20;;;3.10;99.90;;;;;;4976114;28;20470;-69
2021/11/28 06:50:13;;;;;;;9.13;8.33;;;3.00;99.90;;;;;;4975618;28;20514;-70
2021/11/28 06:52:39;;;;;;;11.53;9.30;;;3.00;99.90;;;;;;4975793;28;20502;-70
2021/11/28 06:55:07;;;;;;;10.30;9.30;;;3.00;99.90;;;;;;4975598;28;20482;-71
2021/11/28 06:57:34;;;;;;;8.93;8.00;;;3.10;99.90;;;;;;4975351;28;20954;-70
2021/11/28 07:00:01;;;;;;;10.10;8.00;;;3.00;99.90;;;;;;4975643;28;20459;-70
2021/11/28 07:02:29;;;;;;;10.10;9.10;;;2.90;99.90;;;;;;4975754;28;20881;-70
2021/11/28 07:04:58;;;;;;;12.33;9.90;;;2.90;99.90;;;;;;4975746;28;20451;-69
2021/11/28 07:07:25;;;;;;;9.77;8.77;;;2.90;99.90;;;;;;4975057;28;20458;-69
2021/11/28 07:09:51;;;;;;;10.20;8.03;;;2.90;99.90;;;;;;4975904;28;20247;-69
2021/11/28 07:12:18;;;;;;;8.33;7.53;;;2.90;99.90;;;;;;4975310;28;20529;-69
2021/11/28 07:14:45;;;;;;;8.97;8.17;;;3.00;99.90;;;;;;4975444;28;20483;-69
2021/11/28 07:17:11;;;;;;;12.07;8.93;;;3.00;99.90;;;;;;4975569;28;20513;-71
2021/11/28 07:19:40;;;;;;;10.20;8.90;;;3.00;99.90;;;;;;4975335;28;20481;-68
2021/11/28 07:22:07;;;;;;;10.37;9.20;;;3.00;99.90;;;;;;4975751;28;20476;-68
2021/11/28 07:24:34;;;;;;;12.67;9.20;;;2.90;99.90;;;;;;4976253;28;20459;-68
2021/11/28 07:27:00;;;;;;;9.53;8.63;;;2.90;99.90;;;;;;4975004;28;20973;-68
2021/11/28 07:29:27;;;;;;;10.53;9.30;;;2.90;99.90;;;;;;4975629;28;20517;-69
2021/11/28 07:31:54;;;;;;;9.00;8.20;;;2.90;99.90;;;;;;4975363;28;20482;-68
2021/11/28 07:34:21;;;;;;;10.00;9.00;;;3.00;99.90;;;;;;4975948;28;20498;-69
2021/11/28 07:36:49;;;;;;;8.90;8.00;;;3.00;99.90;;;;;;4976284;28;20502;-70
2021/11/28 07:39:16;;;;;;;10.07;8.53;;;3.00;99.90;;;;;;4975608;28;20459;-69
2021/11/28 07:41:43;;;;;;;9.87;8.87;;;3.00;99.90;;;;;;4974935;28;20533;-70
2021/11/28 07:44:09;;;;;;;8.97;8.07;;;3.00;99.90;;;;;;4975021;28;20459;-69
2021/11/28 07:46:37;;;;;;;8.93;8.10;;;3.10;99.90;;;;;;4974663;28;21001;-69
2021/11/28 07:49:04;;;;;;;10.20;8.30;;;3.10;99.90;;;;;;4975272;28;20466;-69
2021/11/28 07:51:30;;;;;;;9.93;8.30;;;3.10;99.90;;;;;;4975596;28;20482;-69
2021/11/28 07:54:01;;;;;;;9.20;7.50;;;3.10;99.90;;;;;;4974773;28;20460;-69
2021/11/28 07:56:28;;;;;;;9.50;8.10;;;3.10;99.90;;;;;;4975054;28;20870;-69
2021/11/28 07:58:55;;;;;;;10.50;8.00;;;3.20;99.90;;;;;;4974947;28;20466;-70
2021/11/28 08:01:22;;;;;;;11.83;8.00;;;3.20;99.90;;;;;;4974800;28;21009;-69
2021/11/28 08:03:49;;;;;;;9.20;7.70;;;3.20;99.90;;;;;;4975019;28;20461;-69
2021/11/28 08:06:16;;;;;;;9.87;7.90;;;3.20;99.90;;;;;;4975170;28;20453;-69
2021/11/28 08:08:42;;;;;;;8.40;7.37;;;3.20;99.90;;;;;;4978645;28;20458;-69
2021/11/28 08:11:11;;;;;;;9.37;7.40;;;3.20;99.90;;;;;;4978305;28;20479;-70
2021/11/28 08:13:37;;;;;;;8.20;7.00;;;3.30;99.90;;;;;;4978534;28;20819;-67
2021/11/28 08:16:04;;;;;;;9.97;8.70;;;3.30;99.90;;;;;;4978668;28;20479;-68
2021/11/28 08:18:31;;;;;;;8.07;7.37;;;3.30;99.90;;;;;;4978536;28;20463;-68
2021/11/28 08:20:58;;;;;;;9.83;8.83;;;3.30;99.90;;;;;;4978495;28;20510;-68
2021/11/28 08:23:25;;;;;;;9.37;8.47;;;3.30;99.90;;;;;;4978321;28;21008;-68
2021/11/28 08:25:52;;;;;;;9.40;8.50;;;3.40;99.90;;;;;;4978679;28;20451;-68
2021/11/28 08:28:20;;;;;;;9.57;8.40;;;3.30;99.90;;;;;;4978407;28;20458;-69
2021/11/28 08:30:47;;;;;;;11.67;8.70;;;3.30;99.90;;;;;;4978545;28;20603;-69
2021/11/28 08:33:14;;;;;;;11.87;9.33;;;3.40;99.90;;;;;;4978335;28;20823;-69
2021/11/28 08:35:41;;;;;;;9.00;8.03;;;3.40;99.90;;;;;;4977992;28;20486;-69
2021/11/28 08:38:08;;;;;;;9.00;7.50;;;3.40;99.90;;;;;;4978111;28;20459;-68
2021/11/28 08:40:37;;;;;;;10.13;8.97;;;3.50;99.90;;;;;;4977887;28;20467;-69
2021/11/28 08:43:04;;;;;;;10.33;8.83;;;3.50;99.90;;;;;;4977989;28;20459;-70
2021/11/28 08:45:32;;;;;;;9.70;8.70;;;3.60;99.90;;;;;;4977896;28;20451;-70
2021/11/28 08:47:59;;;;;;;8.37;7.03;;;3.70;99.90;;;;;;4978170;28;20468;-70
2021/11/28 08:50:26;;;;;;;9.23;7.87;;;3.80;99.90;;;;;;4978097;28;20497;-70
2021/11/28 08:52:53;;;;;;;9.00;8.07;;;3.90;99.90;;;;;;4978205;28;20823;-70
2021/11/28 08:55:21;;;;;;;10.90;8.40;;;3.90;99.90;;;;;;4978224;28;20475;-70
2021/11/28 08:57:49;;;;;;;15.47;10.77;;;3.90;99.90;;;;;;4977540;28;20977;-70
2021/11/28 09:00:17;;;;;;;9.23;8.30;;;3.90;99.90;;;;;;4977749;28;20454;-70
2021/11/28 09:02:49;;;;;;;8.03;7.23;;;3.90;99.90;;;;;;4977476;28;20498;-70
2021/11/28 09:05:17;;;;;;;8.63;7.73;;;3.90;99.90;;;;;;4977655;28;20501;-70
2021/11/28 09:07:44;;;;;;;9.50;8.33;;;4.00;99.90;;;;;;4978522;28;20455;-70
2021/11/28 09:10:13;;;;;;;9.53;7.37;;;4.00;99.90;;;;;;4978092;28;20467;-70
2021/11/28 09:12:39;;;;;;;8.57;7.77;;;4.00;99.90;;;;;;4977369;28;20956;-70
2021/11/28 09:15:07;;;;;;;9.17;8.27;;;4.00;99.90;;;;;;4977309;28;20504;-64
2021/11/28 09:17:33;;;;;;;8.90;7.20;;;4.10;99.90;;;;;;4976709;28;20451;-65
2021/11/28 09:20:04;;;;;;;8.53;7.37;;;4.40;99.90;;;;;;4976679;28;20542;-65
2021/11/28 09:24:25;;;;;;;8.77;7.87;;;4.50;99.90;;;;;;4977438;28;20485;-65
2021/11/28 09:25:25;;;;;;;8.67;7.77;;;4.70;99.90;;;;;;4976780;28;20454;-64
2021/11/28 09:27:57;;;;;;;11.20;7.07;;;4.80;99.90;;;;;;4977010;28;20479;-65
2021/11/28 09:30:25;;;;;;;10.17;7.17;;;4.90;99.90;;;;;;4976599;28;20999;-65
2021/11/28 09:32:53;;;;;;;7.20;6.50;;;5.00;99.90;;;;;;4978201;28;20459;-66
2021/11/28 09:35:23;;;;;;;8.07;7.27;;;5.10;99.90;;;;;;4981667;28;20475;-65
2021/11/28 09:37:49;;;;;;;9.00;7.03;;;5.30;99.90;;;;;;4978664;28;20466;-65
2021/11/28 09:40:16;;;;;;;6.90;6.20;;;5.50;99.90;;;;;;4976909;28;20455;-67
2021/11/28 09:42:50;;;;;;;7.23;6.60;;;5.80;99.90;;;;;;4976977;28;20514;-65
2021/11/28 09:45:17;;;;;;;9.27;7.27;;;6.00;99.90;;;;;;4976937;28;20435;-65
2021/11/28 09:47:46;;;;;;;7.07;6.33;;;6.30;99.90;;;;;;4976972;28;20533;-66
2021/11/28 09:50:13;;;;;;;7.50;6.20;;;6.40;99.90;;;;;;4976659;28;20530;-66
2021/11/28 09:52:43;;;;;;;7.30;6.60;;;6.50;99.90;;;;;;4976778;28;20462;-69
2021/11/28 09:55:11;;;;;;;7.23;6.63;;;6.50;99.90;;;;;;4976416;28;20503;-70
2021/11/28 09:57:39;;;;;;;8.10;7.40;;;6.30;99.90;;;;;;4976720;28;20859;-70
2021/11/28 10:00:09;;;;;;;9.20;8.03;;;6.30;99.90;;;;;;4976400;28;20440;-69
2021/11/28 10:02:36;;;;;;;10.67;8.40;;;6.10;99.90;;;;;;4975777;28;20491;-70
2021/11/28 10:05:05;;;;;;;7.80;7.10;;;6.00;99.90;;;;;;4976390;28;20478;-69
2021/11/28 10:07:32;;;;;;;8.27;7.40;;;5.80;99.90;;;;;;4976656;28;20513;-70
2021/11/28 10:10:01;;;;;;;7.17;6.30;;;5.70;99.90;;;;;;4976153;28;20454;-71
2021/11/28 10:12:28;;;;;;;8.60;7.00;;;5.70;99.90;;;;;;4975887;28;20982;-71
2021/11/28 10:14:57;;;;;;;8.00;7.20;;;5.60;99.90;;;;;;4976254;28;20526;-70
2021/11/28 10:17:28;;;;;;;8.50;7.50;;;5.60;99.90;;;;;;4976947;28;20443;-71
2021/11/28 10:19:55;;;;;;;7.50;6.80;;;5.60;99.90;;;;;;4976306;28;20446;-71
2021/11/28 10:22:21;;;;;;;8.17;7.47;;;5.60;99.90;;;;;;4976129;28;20501;-71
2021/11/28 10:25:03;;;;;;;7.40;6.70;;;5.50;99.90;;;;;;4975975;28;20459;-69
2021/11/28 10:27:36;;;;;;;8.50;7.53;;;5.50;99.90;;;;;;4975953;28;20451;-69
2021/11/28 10:30:05;;;;;;;8.50;7.80;;;5.50;99.90;;;;;;4975352;28;20439;-70
2021/11/28 10:32:32;;;;;;;8.20;7.40;;;5.60;99.90;;;;;;4975696;28;20533;-70
2021/11/28 10:34:59;;;;;;;8.40;7.47;;;5.70;99.90;;;;;;4976041;28;20506;-69
2021/11/28 10:37:26;;;;;;;9.33;8.33;;;5.60;99.90;;;;;;4976126;28;20457;-70
2021/11/28 10:39:58;;;;;;;8.87;7.20;;;5.60;99.90;;;;;;4976731;28;20458;-70
2021/11/28 10:42:28;;;;;;;7.77;7.07;;;5.70;99.90;;;;;;4976085;28;20811;-71
2021/11/28 10:45:00;;;;;;;8.07;7.27;;;5.50;99.90;;;;;;4975973;28;20887;-70
2021/11/28 10:47:38;;;;;;;10.90;7.60;;;5.50;99.90;;;;;;4975718;28;20455;-70
2021/11/28 10:50:14;;;;;;;8.67;7.87;;;5.50;99.90;;;;;;4975339;28;20882;-70
2021/11/28 10:52:42;;;;;;;8.67;7.83;;;5.50;99.90;;;;;;4976039;28;20515;-71
2021/11/28 10:55:17;;;;;;;9.43;8.43;;;5.40;99.90;;;;;;4976354;28;20455;-71
2021/11/28 10:57:46;;;;;;;10.00;9.00;;;5.30;99.90;;;;;;4975406;28;20918;-70
2021/11/28 11:00:15;;;;;;;10.00;8.73;;;5.30;99.90;;;;;;4975298;28;20463;-70
2021/11/28 11:02:43;;;;;;;10.23;9.23;;;5.40;99.90;;;;;;4976669;28;20450;-70
2021/11/28 11:05:13;;;;;;;10.70;9.00;;;5.30;99.90;;;;;;4975832;28;20459;-70
2021/11/28 11:07:45;;;;;;;10.00;9.10;;;5.30;99.90;;;;;;4975664;28;20444;-71
2021/11/28 11:10:21;;;;;;;9.90;8.90;;;5.20;99.90;;;;;;4975250;28;20910;-70
2021/11/28 11:12:51;;;;;;;10.47;8.67;;;5.20;99.90;;;;;;4975480;28;20806;-70
2021/11/28 11:15:39;;;;;;;9.57;8.57;;;5.20;99.90;;;;;;4975518;28;20455;-70
2021/11/28 11:18:08;;;;;;;12.03;10.83;;;5.20;99.90;;;;;;4975624;28;20471;-69
2021/11/28 11:20:38;;;;;;;11.80;10.60;;;5.30;99.90;;;;;;4975407;28;20510;-69
2021/11/28 11:23:05;;;;;;;8.60;7.70;;;5.20;99.90;;;;;;4975435;28;20801;-70
2021/11/28 11:25:34;;;;;;;9.50;8.40;;;5.20;99.90;;;;;;4975403;28;20451;-71
2021/11/28 11:28:10;;;;;;;9.70;7.27;;;5.20;99.90;;;;;;4975756;28;20459;-71
2021/11/28 11:30:37;;;;;;;7.50;6.77;;;5.20;99.90;;;;;;4975481;28;20483;-72
2021/11/28 11:33:06;;;;;;;8.30;7.43;;;5.30;99.90;;;;;;4974866;28;21013;-71
2021/11/28 11:35:39;;;;;;;26.07;19.30;;;5.30;99.90;;;;;;4975475;28;20493;-70
2021/11/28 11:38:07;;;;;;;14.17;12.33;;;5.40;99.90;;;;;;4975555;28;20555;-71
2021/11/28 11:40:35;;;;;;;10.40;8.03;;;5.30;99.90;;;;;;4974938;28;20533;-70
2021/11/28 11:43:03;;;;;;;7.23;6.63;;;5.20;99.90;;;;;;4978192;28;20966;-70
2021/11/28 11:45:35;;;;;;;9.07;7.70;;;5.30;99.90;;;;;;4978813;28;20455;-70
2021/11/28 11:48:03;;;;;;;10.37;9.20;;;5.30;99.90;;;;;;4979458;28;20439;-70
2021/11/28 11:50:32;;;;;;;15.70;9.97;;;5.20;99.90;;;;;;4979315;28;20513;-70
2021/11/28 11:52:59;;;;;;;10.43;9.43;;;5.20;99.90;;;;;;4978919;28;20455;-70
2021/11/28 11:55:29;;;;;;;10.70;9.70;;;5.20;99.90;;;;;;4978469;28;20455;-70
2021/11/28 11:58:11;;;;;;;9.63;8.70;;;5.20;99.90;;;;;;4979067;28;20880;-70
2021/11/28 12:00:43;;;;;;;7.97;6.93;;;5.30;99.90;;;;;;4978889;28;20490;-71
2021/11/28 12:03:15;;;;;;;7.73;7.00;;;5.30;99.90;;;;;;4978992;28;20450;-70
2021/11/28 12:05:46;;;;;;;6.80;6.13;;;5.30;99.90;;;;;;4978982;28;20479;-70
2021/11/28 12:08:24;;;;;;;7.33;6.63;;;5.30;99.90;;;;;;4979027;28;20803;-70
2021/11/28 12:10:58;;;;;;;9.57;6.30;;;5.30;99.90;;;;;;4982958;28;20506;-70
2021/11/28 12:13:57;;;;;;;7.60;6.90;;;5.40;99.90;;;;;;4978978;28;20475;-70
2021/11/28 12:16:33;;;;;;;8.37;7.50;;;5.40;99.90;;;;;;4978085;28;20533;-70
2021/11/28 12:18:59;;;;;;;13.37;9.90;;;5.40;99.90;;;;;;4978529;28;20529;-70
2021/11/28 12:21:39;;;;;;;16.67;10.77;;;5.40;99.90;;;;;;4978064;28;20493;-70
2021/11/28 12:24:09;;;;;;;10.60;9.70;;;5.50;99.90;;;;;;4978607;28;20450;-70
2021/11/28 12:26:47;;;;;;;11.90;10.10;;;5.50;99.90;;;;;;4978329;28;20440;-70
2021/11/28 12:29:35;;;;;;;10.93;9.83;;;5.50;99.90;;;;;;4978319;28;20470;-70
2021/11/28 12:32:27;;;;;;;12.10;10.07;;;5.40;99.90;;;;;;4978346;28;21057;-69
2021/11/28 12:35:06;;;;;;;11.90;10.20;;;5.40;99.90;;;;;;4978402;28;20443;-70
2021/11/28 12:37:47;;;;;;;12.60;11.30;;;5.30;99.90;;;;;;4978033;28;20521;-72
2021/11/28 12:40:40;;;;;;;12.20;10.90;;;5.20;99.90;;;;;;4980886;28;20446;-71
2021/11/28 12:43:19;;;;;;;12.30;11.00;;;5.10;99.90;;;;;;4980482;28;20446;-70
2021/11/28 12:45:46;;;;;;;12.57;11.23;;;5.20;99.90;;;;;;4979330;28;20443;-71
2021/11/28 12:48:21;;;;;;;12.10;10.83;;;5.30;99.90;;;;;;4978217;28;20443;-71
2021/11/28 12:50:50;;;;;;;10.87;9.87;;;5.30;99.90;;;;;;4977548;28;20470;-70
2021/11/28 12:53:27;;;;;;;11.73;10.50;;;5.30;99.90;;;;;;4977238;28;20462;-70
2021/11/28 12:56:18;;;;;;;12.00;10.80;;;5.40;99.90;;;;;;4977757;28;20442;-70
2021/11/28 12:59:16;;;;;;;12.90;9.00;;;5.40;99.90;;;;;;4977875;28;20439;-70
2021/11/28 13:01:51;;;;;;;10.07;9.07;;;5.40;99.90;;;;;;4977573;28;20526;-70
2021/11/28 13:04:50;;;;;;;13.50;11.47;;;5.50;99.90;;;;;;4977535;28;20459;-71
2021/11/28 13:07:33;;;;;;;13.03;11.53;;;5.50;99.90;;;;;;4977432;28;20458;-69
2021/11/28 13:10:18;;;;;;;11.80;10.23;;;5.60;99.90;;;;;;4977703;28;20439;-69
2021/11/28 13:12:45;;;;;;;11.27;9.97;;;5.60;99.90;;;;;;4977404;28;20440;-69
2021/11/28 13:15:19;;;;;;;11.00;9.90;;;5.50;99.90;;;;;;4977831;28;20502;-69
2021/11/28 13:17:45;;;;;;;10.60;9.47;;;5.50;99.90;;;;;;4977462;28;20550;-70
2021/11/28 13:20:14;;;;;;;10.20;9.10;;;5.50;99.90;;;;;;4977637;28;20490;-69
2021/11/28 13:22:41;;;;;;;8.63;7.77;;;5.50;99.90;;;;;;4978088;28;20514;-69
2021/11/28 13:25:28;;;;;;;9.20;8.40;;;5.40;99.90;;;;;;4977118;28;20455;-69
2021/11/28 13:28:01;;;;;;;10.70;8.77;;;5.30;99.90;;;;;;4977149;28;20509;-70
2021/11/28 13:30:37;;;;;;;9.70;8.80;;;5.20;99.90;;;;;;4977658;28;20446;-69
2021/11/28 13:33:06;;;;;;;10.77;8.87;;;5.10;99.90;;;;;;4976840;28;20903;-70
2021/11/28 13:35:36;;;;;;;10.80;9.80;;;5.10;99.90;;;;;;4977009;28;20450;-70
2021/11/28 13:38:14;;;;;;;13.13;9.93;;;5.00;99.90;;;;;;4977126;28;20510;-69
2021/11/28 13:40:41;;;;;;;10.10;9.10;;;5.00;99.90;;;;;;4977086;28;20485;-70
2021/11/28 13:43:07;;;;;;;11.93;10.30;;;4.90;99.90;;;;;;4977830;28;20521;-69
2021/11/28 13:45:34;;;;;;;11.13;10.03;;;4.90;99.90;;;;;;4976972;28;20517;-69
2021/11/28 13:48:01;;;;;;;17.57;11.27;;;4.90;99.90;;;;;;4976534;28;20454;-70
2021/11/28 13:50:29;;;;;;;12.83;10.43;;;4.80;99.90;;;;;;4977130;28;20466;-69
2021/11/28 13:53:15;;;;;;;10.53;9.43;;;4.80;99.90;;;;;;4977021;28;20533;-69
2021/11/28 13:55:52;;;;;;;11.30;10.20;;;4.80;99.90;;;;;;4977144;28;20443;-69
2021/11/28 13:58:23;;;;;;;14.03;10.17;;;4.80;99.90;;;;;;4976254;28;21057;-69
2021/11/28 14:00:50;;;;;;;11.73;9.73;;;4.80;99.90;;;;;;4976617;28;20518;-68
2021/11/28 14:03:16;;;;;;;14.03;10.90;;;4.80;99.90;;;;;;4976483;28;20439;-69
2021/11/28 14:05:43;;;;;;;11.50;10.40;;;4.80;99.90;;;;;;4975771;28;20466;-70
2021/11/28 14:08:10;;;;;;;12.50;10.73;;;4.80;99.90;;;;;;4976579;28;20506;-69
2021/11/28 14:10:39;;;;;;;11.97;10.67;;;4.80;99.90;;;;;;4976172;28;20482;-70
2021/11/28 14:13:07;;;;;;;13.43;11.50;;;4.80;99.90;;;;;;4976353;28;20562;-70
2021/11/28 14:15:37;;;;;;;11.23;10.13;;;4.80;99.90;;;;;;4976135;28;20494;-70
2021/11/28 14:18:07;;;;;;;12.10;10.90;;;4.80;99.90;;;;;;4976187;28;20460;-70
2021/11/28 14:20:36;;;;;;;11.13;10.13;;;4.80;99.90;;;;;;4976447;28;20458;-69
2021/11/28 14:23:03;;;;;;;11.60;10.57;;;4.80;99.90;;;;;;4976324;28;20455;-69
2021/11/28 14:25:33;;;;;;;11.53;10.43;;;4.80;99.90;;;;;;4976175;28;20509;-70
2021/11/28 14:28:09;;;;;;;13.90;10.90;;;4.80;99.90;;;;;;4976185;28;20491;-70
2021/11/28 14:30:38;;;;;;;11.60;10.50;;;4.80;99.90;;;;;;4976096;28;20521;-70
2021/11/28 14:33:07;;;;;;;10.63;9.20;;;4.80;99.90;;;;;;4976125;28;20455;-69
2021/11/28 14:35:33;;;;;;;10.70;9.60;;;4.80;99.90;;;;;;4975956;28;20459;-69
2021/11/28 14:38:15;;;;;;;10.00;9.10;;;4.80;99.90;;;;;;4975842;28;20475;-69
2021/11/28 14:40:51;;;;;;;11.97;10.77;;;4.70;99.90;;;;;;4976064;28;20483;-70
2021/11/28 14:43:19;;;;;;;10.70;9.70;;;4.70;99.90;;;;;;4975993;28;20453;-70
2021/11/28 14:45:45;;;;;;;10.80;9.70;;;4.70;99.90;;;;;;4975734;28;20546;-69
2021/11/28 14:48:17;;;;;;;11.87;10.57;;;4.70;99.90;;;;;;4975629;28;20459;-70
2021/11/28 14:50:49;;;;;;;14.40;10.50;;;4.70;99.90;;;;;;4975636;28;20486;-68
2021/11/28 14:53:16;;;;;;;13.13;9.80;;;4.70;99.90;;;;;;4975907;28;20443;-69
2021/11/28 14:55:44;;;;;;;12.60;10.27;;;4.70;99.90;;;;;;4975666;28;20550;-69
2021/11/28 14:58:12;;;;;;;10.70;9.73;;;4.70;99.90;;;;;;4975271;28;20546;-68
2021/11/28 15:00:40;;;;;;;9.83;8.83;;;4.70;99.90;;;;;;4974955;28;20506;-70
2021/11/28 15:03:09;;;;;;;10.97;9.83;;;4.60;99.90;;;;;;4975436;28;20463;-69
2021/11/28 15:05:36;;;;;;;11.30;9.20;;;4.60;99.90;;;;;;4975473;28;20459;-68
2021/11/28 15:08:17;;;;;;;9.20;8.30;;;4.60;99.90;;;;;;4975504;28;20458;-68
2021/11/28 15:10:45;;;;;;;9.77;8.53;;;4.60;99.90;;;;;;4975768;28;20510;-69
2021/11/28 15:13:12;;;;;;;10.60;9.50;;;4.60;99.90;;;;;;4976445;28;20451;-69
2021/11/28 15:15:40;;;;;;;9.10;8.20;;;4.50;99.90;;;;;;4976470;28;20490;-69
2021/11/28 15:18:08;;;;;;;9.90;9.00;;;4.50;99.90;;;;;;4976089;28;20518;-68
2021/11/28 15:20:34;;;;;;;11.63;8.30;;;4.50;99.90;;;;;;4975772;28;20454;-69
2021/11/28 15:23:02;;;;;;;11.90;10.00;;;4.50;99.90;;;;;;4976363;28;20463;-67
2021/11/28 15:25:30;;;;;;;10.47;9.43;;;4.60;99.90;;;;;;4975567;28;20462;-68
2021/11/28 15:27:57;;;;;;;9.47;8.57;;;4.80;99.90;;;;;;4975239;28;20947;-65
2021/11/28 15:30:26;;;;;;;9.97;8.53;;;5.00;99.90;;;;;;4978077;28;20522;-65
2021/11/28 15:32:56;;;;;;;10.73;9.63;;;5.10;99.90;;;;;;4979448;28;20459;-64
2021/11/28 15:35:24;;;;;;;10.43;9.23;;;5.30;99.90;;;;;;4975366;28;20463;-65
2021/11/28 15:37:52;;;;;;;11.50;10.30;;;5.40;99.90;;;;;;4975542;28;20529;-65
2021/11/28 15:40:24;;;;;;;12.47;9.70;;;5.30;99.90;;;;;;4976022;28;20454;-64
2021/11/28 15:42:51;;;;;;;8.93;8.13;;;5.40;99.90;;;;;;4976493;28;20439;-65
2021/11/28 15:45:17;;;;;;;8.90;8.20;;;5.20;99.90;;;;;;4974980;28;20817;-68
2021/11/28 15:47:44;;;;;;;10.77;7.57;;;5.30;99.90;;;;;;4975107;28;20455;-66
2021/11/28 15:50:13;;;;;;;18.33;8.30;;;5.20;99.90;;;;;;4975138;28;20459;-68
2021/11/28 15:52:41;;;;;;;8.83;8.03;;;5.10;99.90;;;;;;4974960;28;20471;-68
2021/11/28 15:55:09;;;;;;;8.83;7.93;;;5.10;99.90;;;;;;4974807;28;20542;-67
2021/11/28 15:57:36;;;;;;;9.37;7.57;;;5.10;99.90;;;;;;4974799;28;20479;-67
2021/11/28 16:00:04;;;;;;;9.37;8.47;;;4.90;99.90;;;;;;4974408;28;20857;-67
2021/11/28 16:02:31;;;;;;;8.80;7.90;;;4.80;99.90;;;;;;4974323;28;20830;-68
2021/11/28 16:04:57;;;;;;;9.30;8.43;;;4.70;99.90;;;;;;4975324;28;20466;-67
2021/11/28 16:07:25;;;;;;;11.67;10.50;;;4.70;99.90;;;;;;4975425;28;20451;-67
2021/11/28 16:09:52;;;;;;;10.20;8.83;;;4.60;99.90;;;;;;4975432;28;20459;-67
2021/11/28 16:12:19;;;;;;;10.30;9.03;;;4.60;99.90;;;;;;4974567;28;20467;-67
2021/11/28 16:14:45;;;;;;;10.40;9.30;;;4.60;99.90;;;;;;4974653;28;20455;-68
2021/11/28 16:17:12;;;;;;;10.33;8.70;;;4.50;99.90;;;;;;4974530;28;20474;-69
2021/11/28 16:19:39;;;;;;;10.27;9.23;;;4.50;99.90;;;;;;4975054;28;20459;-68
2021/11/28 16:22:06;;;;;;;10.50;9.47;;;4.40;99.90;;;;;;4974710;28;20981;-68
2021/11/28 16:24:34;;;;;;;11.07;9.90;;;4.40;99.90;;;;;;4976038;28;20451;-68
2021/11/28 16:27:01;;;;;;;11.80;10.60;;;4.40;99.90;;;;;;4975580;28;20466;-69
2021/11/28 16:29:28;;;;;;;13.97;10.93;;;4.40;99.90;;;;;;4979497;28;20482;-68
2021/11/28 16:31:54;;;;;;;12.60;11.40;;;4.40;99.90;;;;;;4979004;28;20479;-68
2021/11/28 16:34:21;;;;;;;14.67;12.20;;;4.40;99.90;;;;;;4978768;28;20938;-68
2021/11/28 16:36:48;;;;;;;11.53;10.43;;;4.40;99.90;;;;;;4979334;28;20467;-68
2021/11/28 16:39:15;;;;;;;14.03;12.70;;;4.40;99.90;;;;;;4978117;28;20993;-68
2021/11/28 16:41:43;;;;;;;14.10;11.23;;;4.30;99.90;;;;;;4978440;28;20471;-68
2021/11/28 16:44:09;;;;;;;14.07;11.93;;;4.30;99.90;;;;;;4978459;28;20451;-68
2021/11/28 16:46:37;;;;;;;13.77;11.90;;;4.30;99.90;;;;;;4980404;28;20454;-67
2021/11/28 16:49:04;;;;;;;11.73;10.63;;;4.30;99.90;;;;;;4980343;28;20533;-68
2021/11/28 16:51:30;;;;;;;14.03;12.63;;;4.30;99.90;;;;;;4978045;28;20475;-67
2021/11/28 16:53:58;;;;;;;12.63;11.33;;;4.30;99.90;;;;;;4977676;28;20462;-68
2021/11/28 16:56:25;;;;;;;11.77;10.60;;;4.30;99.90;;;;;;4978087;28;20439;-68
2021/11/28 16:58:53;;;;;;;13.67;10.47;;;4.30;99.90;;;;;;4978012;28;20533;-68
2021/11/28 17:01:20;;;;;;;12.07;10.90;;;4.20;99.90;;;;;;4977232;28;20487;-63
2021/11/28 17:03:46;;;;;;;13.43;12.10;;;4.20;99.90;;;;;;4977759;28;20769;-67
2021/11/28 17:06:13;;;;;;;14.97;13.20;;;4.20;99.90;;;;;;4977850;28;20873;-67
2021/11/28 17:08:40;;;;;;;14.57;12.57;;;4.20;99.90;;;;;;4977793;28;20455;-68
2021/11/28 17:11:06;;;;;;;18.07;11.93;;;4.20;99.90;;;;;;4977618;28;20537;-67
2021/11/28 17:13:33;;;;;;;14.00;12.73;;;4.20;99.90;;;;;;4977570;28;20509;-65
2021/11/28 17:16:01;;;;;;;13.30;12.00;;;4.20;99.90;;;;;;4977391;28;20514;-67
2021/11/28 17:18:28;;;;;;;11.90;10.57;;;4.20;99.90;;;;;;4977496;28;20687;-71
2021/11/28 17:20:55;;;;;;;13.80;12.30;;;4.30;99.90;;;;;;4977453;28;20529;-68
2021/11/28 17:23:22;;;;;;;15.30;12.13;;;4.30;99.90;;;;;;4977467;28;20494;-68
2021/11/28 17:25:49;;;;;;;14.37;11.73;;;4.40;99.90;;;;;;4977546;28;20459;-68
2021/11/28 17:28:19;;;;;;;15.20;13.20;;;4.40;99.90;;;;;;4977095;28;21005;-68
2021/11/28 17:30:47;;;;;;;16.60;13.83;;;4.30;99.90;;;;;;4977363;28;20475;-68
2021/11/28 17:33:15;;;;;;;16.27;13.17;;;4.20;99.90;;;;;;4977043;28;21021;-69
2021/11/28 17:35:42;;;;;;;14.30;13.00;;;4.30;99.90;;;;;;4977346;28;20455;-68
2021/11/28 17:38:09;;;;;;;14.43;13.00;;;4.30;99.90;;;;;;4978607;28;20559;-68
2021/11/28 17:40:36;;;;;;;16.60;14.10;;;4.30;99.90;;;;;;4976456;28;20459;-69
2021/11/28 17:43:02;;;;;;;14.27;12.53;;;4.30;99.90;;;;;;4977864;28;20942;-70
2021/11/28 17:45:31;;;;;;;16.20;14.50;;;4.20;99.90;;;;;;4977883;28;20946;-68
2021/11/28 17:47:59;;;;;;;16.20;14.50;;;4.20;99.90;;;;;;4978857;28;20470;-70
2021/11/28 17:50:27;;;;;;;21.00;13.90;;;4.20;99.90;;;;;;4976884;28;20451;-69
2021/11/28 17:52:53;;;;;;;14.27;12.77;;;4.10;99.90;;;;;;4977641;28;20458;-69
2021/11/28 17:55:21;;;;;;;17.17;15.57;;;4.20;99.90;;;;;;4977560;28;20465;-70
2021/11/28 17:57:49;;;;;;;16.53;14.83;;;4.10;99.90;;;;;;4976987;28;20475;-69
2021/11/28 18:00:18;;;;;;;23.07;19.30;;;4.10;99.90;;;;;;4977120;28;20458;-68